Time;durP1;ratioP1;P1;durP2;ratioP2;P2;SDS_P1;SDS_P2;PMS_P1;PMS_P2;Temp;Humidity;BMP_temperature;BMP_pressure;BME280_temperature;BME280_humidity;BME280_pressure;Samples;Min_cycle;Max_cycle;Signal;HPM_P1;HPM_P2
2023/03/02 00:03:23;;;;;;;37.50;28.00;;;22.60;51.00;;;;;;222562;1263;23987;-42
2023/03/02 00:08:27;;;;;;;35.40;27.00;;;22.70;50.80;;;;;;222267;1254;24184;-43
2023/03/02 00:13:34;;;;;;;35.90;25.90;;;22.80;50.50;;;;;;222211;1263;25615;-41
2023/03/02 00:18:38;;;;;;;36.90;26.80;;;22.80;50.30;;;;;;224454;1255;25379;-43
2023/03/02 00:23:43;;;;;;;37.50;27.20;;;22.80;50.10;;;;;;222224;1263;24352;-44
2023/03/02 00:28:48;;;;;;;33.00;26.60;;;22.90;49.90;;;;;;222298;1261;23318;-43
2023/03/02 00:33:55;;;;;;;34.40;26.70;;;22.90;49.80;;;;;;222218;1247;23904;-42
2023/03/02 00:38:59;;;;;;;35.70;26.30;;;22.70;50.20;;;;;;222329;1263;25268;-40
2023/03/02 00:44:03;;;;;;;33.10;26.70;;;22.60;50.80;;;;;;222266;1263;22515;-42
2023/03/02 00:49:07;;;;;;;33.30;26.60;;;22.40;50.70;;;;;;222315;1263;22524;-43
2023/03/02 00:54:12;;;;;;;35.80;27.30;;;22.40;50.40;;;;;;222570;1263;22522;-42
2023/03/02 00:59:25;;;;;;;32.40;25.40;;;22.30;51.10;;;;;;222391;1263;23247;-43
2023/03/02 01:04:47;;;;;;;34.20;26.20;;;22.20;51.30;;;;;;222321;1254;22511;-42
2023/03/02 01:09:52;;;;;;;33.60;26.80;;;22.10;51.00;;;;;;222305;1254;22768;-42
2023/03/02 01:14:56;;;;;;;33.70;27.20;;;22.10;51.00;;;;;;222704;1260;25430;-42
2023/03/02 01:20:00;;;;;;;32.90;25.30;;;22.10;51.30;;;;;;222421;1260;24069;-43
2023/03/02 01:25:04;;;;;;;35.60;27.20;;;22.00;51.00;;;;;;221958;1263;22521;-41
2023/03/02 01:30:11;;;;;;;31.40;25.50;;;22.00;51.00;;;;;;224482;1264;22651;-41
2023/03/02 01:35:15;;;;;;;32.90;26.30;;;22.00;50.90;;;;;;223732;1263;23277;-42
2023/03/02 01:40:19;;;;;;;35.00;26.90;;;22.00;50.70;;;;;;222627;1262;22870;-43
2023/03/02 01:46:03;;;;;;;32.90;25.60;;;21.90;51.50;;;;;;222626;1263;22504;-42
2023/03/02 01:51:19;;;;;;;36.30;27.90;;;21.90;51.10;;;;;;220868;1272;22672;-45
2023/03/02 01:56:28;;;;;;;34.10;26.30;;;21.90;50.90;;;;;;220725;1269;22552;-43
2023/03/02 02:01:36;;;;;;;33.70;25.80;;;21.80;51.30;;;;;;220696;1273;22727;-42
2023/03/02 02:06:46;;;;;;;32.70;26.50;;;21.70;50.90;;;;;;220987;1267;23895;-41
2023/03/02 02:11:51;;;;;;;33.30;25.40;;;21.80;51.00;;;;;;220790;1262;22636;-43
2023/03/02 02:16:55;;;;;;;32.80;25.20;;;22.00;50.60;;;;;;220644;1262;178899;-42
2023/03/02 02:22:00;;;;;;;33.00;25.70;;;22.00;50.60;;;;;;220911;1269;22614;-43
2023/03/02 02:27:04;;;;;;;28.80;24.80;;;22.10;50.50;;;;;;222359;1266;22549;-42
2023/03/02 02:32:16;;;;;;;31.40;25.20;;;22.10;50.40;;;;;;222336;1264;24566;-42
2023/03/02 02:37:28;;;;;;;;;;;22.10;50.40;;;;;;222531;1255;22479;-43
2023/03/02 02:42:37;;;;;;;30.90;25.60;;;22.20;50.00;;;;;;222293;1263;25344;-43
2023/03/02 02:47:42;;;;;;;29.90;24.60;;;22.20;49.90;;;;;;222531;1256;22523;-45
2023/03/02 02:52:56;;;;;;;32.80;26.60;;;22.30;49.70;;;;;;222515;1266;22579;-44
2023/03/02 02:58:08;;;;;;;32.30;26.10;;;22.30;49.50;;;;;;222543;1263;25446;-42
2023/03/02 03:03:34;;;;;;;32.60;25.70;;;22.30;49.30;;;;;;222541;1264;22558;-42
2023/03/02 03:08:40;;;;;;;30.90;26.20;;;22.30;49.90;;;;;;222495;1263;24465;-42
2023/03/02 03:13:46;;;;;;;31.10;24.90;;;22.30;49.30;;;;;;222478;1254;23146;-42
2023/03/02 03:18:51;;;;;;;36.40;27.80;;;22.30;49.20;;;;;;222572;1263;23009;-42
2023/03/02 03:23:55;;;;;;;33.80;26.00;;;22.30;49.00;;;;;;222130;1257;22755;-43
2023/03/02 03:28:59;;;;;;;30.10;25.40;;;22.30;49.10;;;;;;228550;1266;25262;-43
2023/03/02 03:34:04;;;;;;;34.20;26.30;;;22.40;49.00;;;;;;224566;1263;25361;-43
2023/03/02 03:39:11;;;;;;;34.60;27.30;;;22.40;48.90;;;;;;222790;1253;22626;-43
2023/03/02 03:44:16;;;;;;;33.60;27.00;;;22.30;49.20;;;;;;222640;1266;22732;-42
2023/03/02 03:49:20;;;;;;;33.10;27.00;;;22.20;49.50;;;;;;222563;1257;24197;-42
2023/03/02 03:54:25;;;;;;;33.70;27.40;;;22.20;49.50;;;;;;222521;1253;22504;-42
2023/03/02 03:59:29;;;;;;;32.20;25.90;;;22.30;49.80;;;;;;222643;1261;23089;-41
2023/03/02 04:04:36;;;;;;;32.80;26.60;;;22.30;49.10;;;;;;222514;1253;22519;-42
2023/03/02 04:09:47;;;;;;;38.00;27.50;;;22.50;49.10;;;;;;222531;1262;22521;-43
2023/03/02 04:14:52;;;;;;;35.10;28.60;;;22.60;48.40;;;;;;222559;1262;22518;-43
2023/03/02 04:19:57;;;;;;;32.80;26.00;;;22.60;48.70;;;;;;222557;1260;22721;-41
2023/03/02 04:25:02;;;;;;;36.80;27.90;;;22.50;48.30;;;;;;222509;1263;22514;-44
2023/03/02 04:30:07;;;;;;;35.20;27.20;;;22.50;48.30;;;;;;222707;1263;25284;-41
2023/03/02 04:35:13;;;;;;;32.80;25.90;;;22.50;48.30;;;;;;222647;1253;25389;-43
2023/03/02 04:40:17;;;;;;;34.60;27.40;;;22.50;48.40;;;;;;222623;1260;22507;-43
2023/03/02 04:45:21;;;;;;;35.80;27.10;;;22.50;48.30;;;;;;222623;1260;22504;-43
2023/03/02 04:50:25;;;;;;;30.60;26.60;;;22.40;48.20;;;;;;222601;1253;22502;-42
2023/03/02 04:55:30;;;;;;;31.60;27.30;;;22.30;48.50;;;;;;222442;1263;25420;-41
2023/03/02 05:00:34;;;;;;;35.10;27.60;;;22.30;48.70;;;;;;222739;1264;22521;-43
2023/03/02 05:05:38;;;;;;;33.60;26.50;;;22.30;48.80;;;;;;222789;1260;22507;-42
2023/03/02 05:10:42;;;;;;;32.00;27.00;;;22.30;49.10;;;;;;222586;1268;24384;-44
2023/03/02 05:15:46;;;;;;;34.90;27.70;;;22.30;48.80;;;;;;222654;1263;25290;-43
2023/03/02 05:20:52;;;;;;;35.30;28.20;;;22.30;48.80;;;;;;222656;1265;22659;-42
2023/03/02 05:25:56;;;;;;;31.00;25.90;;;22.30;48.80;;;;;;222447;1268;26100;-44
2023/03/02 05:31:01;;;;;;;31.70;26.30;;;22.40;48.90;;;;;;222471;1263;22516;-43
2023/03/02 05:36:05;;;;;;;30.20;26.00;;;22.50;48.30;;;;;;222573;1268;22526;-42
2023/03/02 05:41:09;;;;;;;34.60;27.60;;;22.60;48.00;;;;;;222014;1266;22558;-42
2023/03/02 05:46:13;;;;;;;35.10;27.00;;;22.60;47.80;;;;;;222731;1263;24340;-43
2023/03/02 05:51:18;;;;;;;31.70;26.20;;;22.60;47.70;;;;;;222578;1263;22985;-43
2023/03/02 05:56:22;;;;;;;33.60;28.00;;;22.60;48.30;;;;;;222634;1263;24365;-43
2023/03/02 06:01:26;;;;;;;31.60;25.20;;;22.50;47.80;;;;;;222458;1246;24234;-53
2023/03/02 06:06:30;;;;;;;33.30;26.70;;;22.50;48.10;;;;;;222537;1256;22512;-56
2023/03/02 06:11:36;;;;;;;32.90;26.50;;;22.40;48.30;;;;;;222182;1266;22534;-54
2023/03/02 06:16:40;;;;;;;32.60;26.50;;;22.40;48.40;;;;;;222520;1254;22639;-56
2023/03/02 06:21:44;;;;;;;32.50;27.60;;;22.40;48.30;;;;;;222477;1257;22501;-56
2023/03/02 06:26:48;;;;;;;32.80;26.80;;;22.40;48.30;;;;;;222481;1247;22830;-54
2023/03/02 06:31:53;;;;;;;33.80;27.20;;;22.40;48.30;;;;;;222447;1263;22560;-49
2023/03/02 06:36:57;;;;;;;34.20;26.90;;;22.40;48.40;;;;;;222562;1263;25532;-52
2023/03/02 06:42:01;;;;;;;32.30;27.30;;;22.40;48.80;;;;;;222105;1264;22518;-51
2023/03/02 06:47:05;;;;;;;36.70;28.80;;;22.40;48.80;;;;;;222502;1266;25340;-52
2023/03/02 06:52:12;;;;;;;32.70;28.10;;;22.40;48.60;;;;;;222029;1268;22552;-53
2023/03/02 06:57:16;;;;;;;36.00;28.20;;;22.40;49.40;;;;;;222544;1253;22542;-54
2023/03/02 07:02:23;;;;;;;36.90;29.10;;;22.50;49.20;;;;;;222536;1263;24173;-52
2023/03/02 07:07:27;;;;;;;33.90;27.30;;;22.50;50.50;;;;;;222514;1247;22654;-54
2023/03/02 07:12:31;;;;;;;33.50;28.00;;;22.60;50.60;;;;;;222565;1247;23024;-49
2023/03/02 07:17:37;;;;;;;37.10;29.60;;;22.60;50.20;;;;;;222584;1263;22522;-53
2023/03/02 07:22:42;;;;;;;37.20;29.00;;;22.70;50.00;;;;;;222449;1259;22511;-50
2023/03/02 07:27:46;;;;;;;36.90;28.80;;;22.70;50.30;;;;;;222560;1268;22498;-53
2023/03/02 07:32:52;;;;;;;45.50;28.40;;;22.70;50.20;;;;;;222419;1266;22514;-56
2023/03/02 07:37:57;;;;;;;36.80;28.10;;;22.70;50.40;;;;;;222380;1268;23883;-50
2023/03/02 07:43:01;;;;;;;41.90;28.80;;;22.80;50.30;;;;;;222340;1256;24645;-46
2023/03/02 07:48:05;;;;;;;39.10;27.60;;;22.80;50.30;;;;;;222254;1263;22517;-52
2023/03/02 07:53:09;;;;;;;42.90;32.70;;;22.70;50.20;;;;;;222420;1254;23872;-49
2023/03/02 07:58:13;;;;;;;41.70;31.20;;;22.60;49.00;;;;;;227008;1260;25384;-50
2023/03/02 08:03:18;;;;;;;39.10;31.40;;;22.70;49.00;;;;;;222298;1263;22502;-48
2023/03/02 08:08:22;;;;;;;47.30;31.40;;;22.70;49.00;;;;;;222606;1264;23102;-52
2023/03/02 08:13:26;;;;;;;35.90;30.00;;;22.70;48.80;;;;;;222465;1263;25355;-52
2023/03/02 08:18:31;;;;;;;36.80;30.40;;;22.70;48.80;;;;;;222393;1263;22944;-53
2023/03/02 08:23:35;;;;;;;39.00;30.30;;;22.80;48.90;;;;;;222670;1268;24212;-51
2023/03/02 08:28:39;;;;;;;36.50;29.40;;;22.90;48.60;;;;;;222608;1262;22561;-52
2023/03/02 08:33:44;;;;;;;35.30;28.80;;;22.90;48.40;;;;;;222794;1263;25569;-49
2023/03/02 08:38:49;;;;;;;37.70;29.80;;;23.00;48.40;;;;;;222374;1268;22593;-51
2023/03/02 08:43:54;;;;;;;34.20;28.90;;;23.00;48.30;;;;;;222428;1263;22585;-51
2023/03/02 08:48:59;;;;;;;36.30;30.20;;;23.00;48.40;;;;;;222332;1260;22512;-53
2023/03/02 08:54:03;;;;;;;36.50;30.70;;;23.00;48.40;;;;;;222472;1266;22655;-52
2023/03/02 08:59:11;;;;;;;34.30;27.90;;;23.00;48.90;;;;;;222454;1263;22634;-54
2023/03/02 09:04:15;;;;;;;36.60;29.00;;;23.00;48.30;;;;;;222793;1263;25452;-53
2023/03/02 09:09:19;;;;;;;38.30;29.20;;;23.00;48.20;;;;;;222506;1266;22732;-53
2023/03/02 09:14:24;;;;;;;38.90;28.40;;;23.00;48.10;;;;;;222489;1268;22509;-50
2023/03/02 09:19:28;;;;;;;35.20;28.10;;;23.00;48.00;;;;;;222414;1262;25491;-52
2023/03/02 09:24:33;;;;;;;33.40;26.50;;;23.00;48.00;;;;;;222542;1265;22514;-52
2023/03/02 09:29:37;;;;;;;35.40;28.70;;;23.00;48.30;;;;;;222588;1262;25955;-50
2023/03/02 09:34:41;;;;;;;32.10;27.10;;;23.00;47.90;;;;;;222219;1254;22505;-53
2023/03/02 09:39:45;;;;;;;32.10;26.90;;;23.00;48.30;;;;;;222310;1261;24228;-54
2023/03/02 09:45:13;;;;;;;34.60;26.80;;;23.00;48.00;;;;;;222097;1265;22662;-50
2023/03/02 09:50:32;;;;;;;33.60;26.90;;;23.00;48.40;;;;;;222119;1246;24228;-46
2023/03/02 09:55:37;;;;;;;29.80;24.60;;;23.00;48.10;;;;;;222396;1254;22511;-52
2023/03/02 10:00:42;;;;;;;29.90;25.10;;;23.00;48.10;;;;;;222284;1263;23206;-50
2023/03/02 10:05:49;;;;;;;28.60;24.90;;;22.90;48.10;;;;;;222372;1264;22643;-51
2023/03/02 10:11:08;;;;;;;28.90;25.30;;;22.90;48.30;;;;;;222109;1263;22521;-52
2023/03/02 10:16:24;;;;;;;30.50;24.20;;;22.90;49.00;;;;;;222196;1254;25568;-51
2023/03/02 10:21:31;;;;;;;28.70;24.40;;;22.90;49.40;;;;;;222480;1263;22514;-53
2023/03/02 10:26:37;;;;;;;26.20;22.70;;;22.90;49.60;;;;;;222426;1263;23942;-52
2023/03/02 10:31:42;;;;;;;27.30;22.60;;;22.90;49.40;;;;;;222425;1263;24254;-52
2023/03/02 10:36:46;;;;;;;28.00;22.60;;;22.90;49.30;;;;;;222685;1263;24157;-48
2023/03/02 10:42:02;;;;;;;29.40;24.50;;;23.00;49.20;;;;;;222589;1263;25189;-52
2023/03/02 10:47:07;;;;;;;25.50;22.30;;;23.00;49.30;;;;;;222346;1268;22510;-47
2023/03/02 10:52:16;;;;;;;26.80;22.50;;;23.10;49.20;;;;;;222466;1263;25237;-46
2023/03/02 10:57:29;;;;;;;27.60;22.20;;;23.20;48.60;;;;;;222391;1263;22508;-49
2023/03/02 11:02:36;;;;;;;26.00;22.10;;;23.20;48.40;;;;;;222328;1268;22558;-52
2023/03/02 11:07:53;;;;;;;24.80;21.50;;;23.30;48.70;;;;;;222033;1266;24231;-53
2023/03/02 11:12:59;;;;;;;26.60;21.30;;;23.30;48.30;;;;;;222234;1266;22514;-50
2023/03/02 11:18:21;;;;;;;25.70;21.30;;;23.40;48.40;;;;;;222363;1263;24342;-51
2023/03/02 11:23:42;;;;;;;24.90;21.00;;;23.40;48.20;;;;;;222406;1263;22525;-49
2023/03/02 11:28:58;;;;;;;22.00;19.60;;;23.50;48.00;;;;;;222870;1266;24713;-52
2023/03/02 11:34:14;;;;;;;21.60;19.40;;;23.50;47.80;;;;;;222888;1266;22523;-54
2023/03/02 11:39:31;;;;;;;22.90;19.40;;;23.60;47.80;;;;;;222816;1253;22637;-52
2023/03/02 11:44:35;;;;;;;24.90;20.40;;;23.50;47.90;;;;;;222746;1260;22559;-52
2023/03/02 11:49:58;;;;;;;24.10;18.80;;;23.50;47.80;;;;;;222699;1250;22520;-50
2023/03/02 11:55:15;;;;;;;21.00;17.70;;;23.50;47.80;;;;;;222507;1254;22524;-51
2023/03/02 12:00:28;;;;;;;19.60;17.50;;;23.50;47.10;;;;;;222912;1268;25467;-49
2023/03/02 12:05:36;;;;;;;19.80;17.70;;;23.60;46.80;;;;;;222688;1264;22613;-52
2023/03/02 12:10:44;;;;;;;21.10;18.10;;;23.70;46.90;;;;;;222272;1258;22515;-52
2023/03/02 12:15:49;;;;;;;22.40;18.10;;;23.60;46.60;;;;;;222215;1263;26506;-50
2023/03/02 12:21:10;;;;;;;18.90;16.90;;;23.60;46.70;;;;;;221860;1263;26833;-50
2023/03/02 12:26:20;;;;;;;19.70;17.20;;;23.70;46.30;;;;;;222024;1266;23913;-51
2023/03/02 12:31:26;;;;;;;19.70;15.20;;;23.80;46.50;;;;;;222592;1266;22508;-52
2023/03/02 12:36:39;;;;;;;17.10;15.30;;;23.90;46.10;;;;;;222521;1266;22507;-51
2023/03/02 12:42:02;;;;;;;17.70;15.30;;;23.90;46.20;;;;;;222445;1265;22527;-49
2023/03/02 12:47:14;;;;;;;17.30;15.50;;;23.70;46.80;;;;;;222633;1263;22524;-50
2023/03/02 12:52:27;;;;;;;17.50;15.70;;;23.90;46.30;;;;;;222461;1263;22555;-51
2023/03/02 12:57:32;;;;;;;17.40;15.10;;;23.80;47.00;;;;;;222307;1269;23476;-52
2023/03/02 13:02:36;;;;;;;18.70;15.50;;;23.80;46.70;;;;;;222446;1246;22516;-51
2023/03/02 13:07:46;;;;;;;17.20;15.20;;;23.80;46.70;;;;;;222377;1266;24215;-46
2023/03/02 13:12:50;;;;;;;16.60;14.50;;;23.60;46.90;;;;;;222328;1248;22590;-49
2023/03/02 13:17:59;;;;;;;18.00;15.50;;;23.60;47.40;;;;;;222337;1261;24186;-44
2023/03/02 13:23:03;;;;;;;16.10;14.40;;;23.70;47.50;;;;;;222652;1260;24206;-45
2023/03/02 13:28:26;;;;;;;15.90;14.20;;;23.60;47.30;;;;;;222399;1267;23988;-49
2023/03/02 13:33:32;;;;;;;15.30;13.60;;;23.50;47.70;;;;;;222483;1266;24231;-48
2023/03/02 13:38:37;;;;;;;17.70;13.50;;;23.60;47.50;;;;;;222589;1262;22518;-50
2023/03/02 13:43:41;;;;;;;15.20;13.70;;;23.50;47.70;;;;;;222469;1266;22531;-53
2023/03/02 13:48:55;;;;;;;14.90;13.40;;;23.60;47.80;;;;;;222520;1250;24164;-52
2023/03/02 13:54:26;;;;;;;14.40;12.90;;;23.50;47.70;;;;;;222435;1268;22764;-45
2023/03/02 13:59:35;;;;;;;14.40;12.90;;;23.60;47.50;;;;;;222523;1260;22493;-48
2023/03/02 14:04:39;;;;;;;15.80;13.10;;;23.60;47.40;;;;;;222420;1266;22601;-47
2023/03/02 14:09:43;;;;;;;15.00;12.70;;;23.60;47.30;;;;;;222327;1255;24243;-50
2023/03/02 14:14:47;;;;;;;13.90;12.40;;;23.60;47.30;;;;;;222350;1254;23118;-57
2023/03/02 14:19:52;;;;;;;13.90;11.80;;;23.70;47.10;;;;;;222022;1250;177142;-51
2023/03/02 14:24:56;;;;;;;13.20;11.90;;;23.50;47.30;;;;;;222357;1263;22634;-53
2023/03/02 14:30:00;;;;;;;13.40;12.00;;;23.60;47.10;;;;;;222473;1247;22563;-57
2023/03/02 14:35:07;;;;;;;12.30;11.10;;;23.60;46.70;;;;;;222156;1256;25166;-55
2023/03/02 14:40:17;;;;;;;12.90;11.40;;;23.50;46.40;;;;;;222357;1263;25345;-55
2023/03/02 14:45:21;;;;;;;11.10;9.90;;;23.50;46.70;;;;;;222568;1263;23821;-52
2023/03/02 14:50:25;;;;;;;11.70;10.50;;;23.40;46.60;;;;;;222458;1263;23383;-57
2023/03/02 14:55:31;;;;;;;10.60;9.60;;;23.30;46.30;;;;;;222467;1263;25360;-52
2023/03/02 15:00:35;;;;;;;11.50;9.50;;;23.10;45.70;;;;;;222116;1266;22515;-53
2023/03/02 15:05:41;;;;;;;13.80;10.30;;;23.00;46.40;;;;;;222826;1266;25591;-52
2023/03/02 15:11:02;;;;;;;;;;;23.00;45.10;;;;;;222501;1263;22486;-48
2023/03/02 15:16:11;;;;;;;12.50;9.60;;;23.10;46.10;;;;;;222371;1255;23872;-56
2023/03/02 15:21:18;;;;;;;11.40;9.30;;;23.00;46.80;;;;;;222542;1264;24212;-52
2023/03/02 15:26:22;;;;;;;19.30;9.20;;;23.00;47.50;;;;;;222578;1266;24207;-46
2023/03/02 15:31:27;;;;;;;9.20;8.30;;;22.90;48.00;;;;;;222595;1264;24043;-46
2023/03/02 15:36:31;;;;;;;10.50;9.00;;;22.80;47.90;;;;;;222555;1266;22511;-48
2023/03/02 15:41:35;;;;;;;12.10;9.20;;;22.70;48.30;;;;;;222674;1254;24188;-50
2023/03/02 15:46:38;;;;;;;11.90;9.20;;;22.60;47.80;;;;;;222431;1263;23000;-53
2023/03/02 15:51:43;;;;;;;11.60;9.10;;;22.60;47.40;;;;;;222824;1263;22509;-43
2023/03/02 15:56:53;;;;;;;13.10;11.30;;;22.60;47.80;;;;;;223063;1266;25361;-51
2023/03/02 16:01:58;;;;;;;180.10;99.40;;;22.70;48.00;;;;;;222400;1259;24225;-48
2023/03/02 16:07:02;;;;;;;192.80;118.50;;;22.80;48.20;;;;;;222300;1267;25314;-52
2023/03/02 16:12:07;;;;;;;184.90;110.40;;;22.80;48.80;;;;;;222505;1264;22508;-53
2023/03/02 16:17:11;;;;;;;167.80;102.70;;;22.80;48.70;;;;;;222364;1266;22490;-54
2023/03/02 16:22:15;;;;;;;156.10;94.70;;;22.80;48.80;;;;;;222120;1263;24252;-53
2023/03/02 16:27:19;;;;;;;150.30;93.20;;;22.70;48.90;;;;;;222193;1255;25546;-57
2023/03/02 16:32:23;;;;;;;139.60;91.30;;;22.60;49.10;;;;;;222282;1263;22478;-53
2023/03/02 16:37:28;;;;;;;138.80;88.00;;;22.50;49.10;;;;;;222154;1256;24184;-52
2023/03/02 16:42:32;;;;;;;132.30;84.60;;;22.40;49.20;;;;;;222290;1264;22522;-57
2023/03/02 16:47:36;;;;;;;129.80;82.30;;;22.40;48.90;;;;;;222266;1253;24175;-56
2023/03/02 16:52:41;;;;;;;126.90;80.10;;;22.40;48.80;;;;;;222216;1254;24529;-54
2023/03/02 16:57:46;;;;;;;126.10;75.30;;;22.30;48.70;;;;;;222255;1254;23006;-48
2023/03/02 17:02:52;;;;;;;119.70;74.80;;;22.30;49.50;;;;;;221942;1261;26559;-49
2023/03/02 17:08:00;;;;;;;123.30;73.60;;;22.40;51.70;;;;;;222757;1268;22532;-51
2023/03/02 17:13:10;;;;;;;103.70;70.10;;;22.40;51.30;;;;;;222312;1248;22625;-52
2023/03/02 17:18:16;;;;;;;98.00;66.30;;;22.20;50.90;;;;;;221907;1263;22516;-51
2023/03/02 17:23:25;;;;;;;106.70;67.50;;;22.20;51.00;;;;;;222078;1261;24232;-50
2023/03/02 17:28:33;;;;;;;104.20;64.20;;;22.10;50.10;;;;;;222935;1267;22653;-48
2023/03/02 17:33:41;;;;;;;93.60;62.50;;;22.10;50.70;;;;;;223001;1267;25364;-50
2023/03/02 17:38:48;;;;;;;99.60;60.30;;;22.00;49.90;;;;;;222712;1264;22513;-48
2023/03/02 17:43:55;;;;;;;90.40;59.60;;;22.00;50.20;;;;;;222295;1267;23156;-49
2023/03/02 17:49:03;;;;;;;97.10;62.20;;;22.00;49.80;;;;;;222525;1265;22544;-51
2023/03/02 17:54:10;;;;;;;90.60;60.20;;;22.00;51.20;;;;;;222228;1264;22631;-52
2023/03/02 17:59:18;;;;;;;86.50;57.60;;;21.90;52.10;;;;;;222690;1269;23139;-49
2023/03/02 18:04:23;;;;;;;87.10;56.40;;;21.90;51.60;;;;;;222378;1263;23152;-52
2023/03/02 18:09:27;;;;;;;85.30;54.10;;;21.90;51.10;;;;;;222513;1263;22522;-50
2023/03/02 18:14:35;;;;;;;77.30;54.40;;;21.90;51.10;;;;;;222428;1264;25210;-47
2023/03/02 18:19:40;;;;;;;80.20;51.80;;;21.70;50.70;;;;;;222601;1264;25067;-49
2023/03/02 18:24:46;;;;;;;78.20;51.90;;;21.70;50.60;;;;;;222452;1267;26505;-52
2023/03/02 18:29:53;;;;;;;72.00;50.90;;;21.70;50.30;;;;;;222343;1267;25265;-51
2023/03/02 18:35:00;;;;;;;71.50;48.80;;;21.70;50.10;;;;;;222339;1256;25265;-52
2023/03/02 18:40:07;;;;;;;75.70;48.90;;;21.60;49.80;;;;;;222448;1267;22608;-52
2023/03/02 18:45:25;;;;;;;75.40;50.00;;;21.60;50.00;;;;;;222430;1263;26725;-48
2023/03/02 18:50:31;;;;;;;64.40;46.80;;;21.80;49.50;;;;;;222381;1255;24346;-45
2023/03/02 18:55:39;;;;;;;62.60;43.20;;;22.20;48.50;;;;;;222403;1265;22527;-52
2023/03/02 19:00:45;;;;;;;66.90;44.50;;;22.30;48.00;;;;;;222520;1264;22541;-44
2023/03/02 19:05:52;;;;;;;73.40;44.60;;;22.30;48.10;;;;;;222330;1269;23921;-49
2023/03/02 19:11:01;;;;;;;64.90;43.20;;;22.50;48.50;;;;;;223139;1264;24187;-49
2023/03/02 19:16:08;;;;;;;62.70;41.10;;;22.70;48.00;;;;;;222261;1269;22633;-52
2023/03/02 19:21:13;;;;;;;59.50;38.40;;;22.80;47.30;;;;;;222475;1264;22512;-52
2023/03/02 19:26:18;;;;;;;57.40;39.40;;;22.90;47.80;;;;;;222641;1264;25132;-53
2023/03/02 19:31:26;;;;;;;54.50;39.20;;;23.00;48.00;;;;;;222582;1266;22551;-53
2023/03/02 19:36:33;;;;;;;54.40;37.40;;;23.00;47.80;;;;;;222169;1267;23887;-51
2023/03/02 19:41:40;;;;;;;51.10;36.10;;;23.10;47.50;;;;;;222223;1261;22504;-48
2023/03/02 19:46:46;;;;;;;50.50;37.00;;;23.30;47.40;;;;;;222626;1268;25398;-52
2023/03/02 19:51:52;;;;;;;49.10;37.00;;;23.30;47.50;;;;;;222277;1262;24337;-52
2023/03/02 19:57:02;;;;;;;53.50;35.30;;;23.30;47.50;;;;;;222444;1253;24577;-49
2023/03/02 20:02:10;;;;;;;48.60;35.90;;;23.20;47.70;;;;;;222049;1258;22518;-47
2023/03/02 20:07:19;;;;;;;45.80;33.80;;;23.10;47.90;;;;;;222474;1266;25445;-47
2023/03/02 20:12:28;;;;;;;49.00;34.90;;;23.10;48.10;;;;;;222418;1261;25766;-45
2023/03/02 20:17:36;;;;;;;42.70;32.50;;;22.90;48.00;;;;;;222495;1268;22606;-49
2023/03/02 20:22:44;;;;;;;52.10;33.50;;;22.90;47.80;;;;;;222612;1260;22639;-49
2023/03/02 20:27:50;;;;;;;42.40;30.90;;;23.00;47.50;;;;;;222347;1254;24250;-45
2023/03/02 20:33:00;;;;;;;44.00;31.40;;;22.80;47.80;;;;;;222386;1253;24226;-44
2023/03/02 20:38:12;;;;;;;41.80;31.10;;;22.70;48.20;;;;;;222259;1256;24580;-49
2023/03/02 20:43:18;;;;;;;45.40;30.20;;;22.80;48.10;;;;;;222324;1266;22781;-48
2023/03/02 20:48:25;;;;;;;40.60;29.90;;;22.80;48.40;;;;;;222411;1254;22547;-48
2023/03/02 20:53:32;;;;;;;40.80;29.90;;;22.60;48.80;;;;;;222085;1269;23280;-48
2023/03/02 20:58:40;;;;;;;38.60;29.80;;;22.70;49.30;;;;;;222683;1263;24294;-57
2023/03/02 21:03:46;;;;;;;44.20;29.10;;;22.60;49.00;;;;;;222589;1254;22776;-51
2023/03/02 21:08:53;;;;;;;40.00;29.20;;;22.60;48.90;;;;;;222337;1262;24189;-55
2023/03/02 21:14:00;;;;;;;37.70;28.20;;;22.60;48.90;;;;;;222707;1266;23178;-55
2023/03/02 21:19:11;;;;;;;37.00;29.00;;;22.50;49.90;;;;;;222409;1260;22547;-55
2023/03/02 21:24:16;;;;;;;37.20;28.30;;;22.50;49.80;;;;;;222500;1269;25775;-56
2023/03/02 21:29:25;;;;;;;37.00;28.20;;;22.50;49.50;;;;;;222313;1247;22553;-54
2023/03/02 21:34:31;;;;;;;35.40;27.00;;;22.40;49.80;;;;;;222339;1263;24250;-52
2023/03/02 21:39:40;;;;;;;37.40;29.30;;;22.30;49.80;;;;;;222398;1262;24163;-55
2023/03/02 21:44:46;;;;;;;35.10;28.10;;;22.30;49.70;;;;;;222163;1262;23286;-49
2023/03/02 21:49:50;;;;;;;36.00;27.20;;;22.30;50.50;;;;;;222525;1263;22507;-55
2023/03/02 21:54:54;;;;;;;35.50;26.80;;;22.40;50.90;;;;;;222453;1263;22659;-53
2023/03/02 21:59:59;;;;;;;39.80;27.60;;;22.10;50.70;;;;;;222633;1263;22626;-56
2023/03/02 22:05:04;;;;;;;38.70;26.80;;;22.20;51.60;;;;;;222417;1253;22522;-56
2023/03/02 22:10:22;;;;;;;37.20;27.30;;;22.20;52.00;;;;;;222518;1261;23700;-56
2023/03/02 22:15:26;;;;;;;36.70;26.70;;;22.20;51.80;;;;;;222425;1265;22660;-56
2023/03/02 22:20:31;;;;;;;37.20;27.10;;;22.20;51.70;;;;;;222601;1266;24002;-54
2023/03/02 22:25:35;;;;;;;36.00;24.80;;;22.00;51.50;;;;;;222387;1266;22662;-54
2023/03/02 22:30:39;;;;;;;33.00;26.50;;;22.10;51.80;;;;;;222501;1263;22504;-53
2023/03/02 22:35:45;;;;;;;28.80;24.40;;;22.00;51.50;;;;;;222284;1253;22511;-55
2023/03/02 22:40:50;;;;;;;31.60;26.10;;;22.00;51.20;;;;;;222503;1254;22514;-56
2023/03/02 22:46:03;;;;;;;29.30;24.40;;;21.90;51.60;;;;;;222615;1253;22560;-56
2023/03/02 22:51:16;;;;;;;32.00;24.50;;;21.90;50.60;;;;;;222615;1268;22608;-56
2023/03/02 22:56:34;;;;;;;28.90;23.90;;;21.90;50.90;;;;;;222478;1266;22511;-55
2023/03/02 23:01:43;;;;;;;28.70;24.00;;;21.90;50.90;;;;;;222504;1263;22522;-55
2023/03/02 23:07:01;;;;;;;28.40;23.20;;;21.80;50.50;;;;;;222612;1262;25207;-53
2023/03/02 23:12:18;;;;;;;29.70;24.30;;;21.80;50.80;;;;;;222466;1253;25311;-51
2023/03/02 23:17:40;;;;;;;31.10;23.30;;;21.80;51.30;;;;;;222480;1254;22638;-56
2023/03/02 23:22:44;;;;;;;27.00;22.60;;;22.20;51.00;;;;;;222398;1269;22633;-56
2023/03/02 23:27:48;;;;;;;25.80;21.40;;;22.40;50.10;;;;;;222489;1264;22533;-55
2023/03/02 23:32:52;;;;;;;26.00;21.30;;;22.50;50.00;;;;;;222501;1253;22530;-55
2023/03/02 23:37:57;;;;;;;23.10;19.70;;;22.60;50.10;;;;;;222707;1266;22518;-55
2023/03/02 23:43:01;;;;;;;24.40;20.70;;;22.80;49.30;;;;;;222341;1267;22663;-52
2023/03/02 23:48:05;;;;;;;25.70;21.30;;;22.90;49.10;;;;;;222588;1266;22512;-55
2023/03/02 23:53:10;;;;;;;24.10;21.20;;;23.00;48.90;;;;;;222581;1266;23877;-55
2023/03/02 23:58:15;;;;;;;24.20;20.20;;;22.90;48.90;;;;;;222454;1262;24279;-53
